createdAt,value
2023-03-22T00:03:11.005Z,12.04
2023-03-22T00:08:14.080Z,12.02
2023-03-22T00:13:16.616Z,11.93
2023-03-22T00:18:19.692Z,11.82
2023-03-22T00:23:23.339Z,11.80
2023-03-22T00:28:25.937Z,11.80
2023-03-22T00:33:30.148Z,11.85
2023-03-22T00:38:43.649Z,11.80
2023-03-22T00:43:47.556Z,11.69
2023-03-22T00:48:50.050Z,11.70
2023-03-22T00:53:54.208Z,11.84
2023-03-22T00:58:57.144Z,11.91
2023-03-22T01:04:00.090Z,11.98
2023-03-22T01:09:02.737Z,12.01
2023-03-22T01:14:05.328Z,11.97
2023-03-22T01:19:27.670Z,11.72
2023-03-22T01:24:30.257Z,11.67
2023-03-22T01:29:32.741Z,11.56
2023-03-22T01:34:38.338Z,11.56
2023-03-22T01:39:41.642Z,11.46
2023-03-22T01:45:14.829Z,11.34
2023-03-22T01:50:24.703Z,11.17
2023-03-22T01:55:28.428Z,10.96
2023-03-22T02:00:42.847Z,10.89
2023-03-22T02:06:19.169Z,10.91
2023-03-22T02:11:33.346Z,10.59
2023-03-22T02:16:46.983Z,10.47
2023-03-22T02:22:22.229Z,10.48
2023-03-22T02:28:06.925Z,10.49
2023-03-22T02:33:18.419Z,10.49
2023-03-22T02:38:45.969Z,10.54
2023-03-22T02:43:57.273Z,10.55
2023-03-22T02:49:21.180Z,10.58
2023-03-22T02:54:34.428Z,10.56
2023-03-22T02:59:41.239Z,10.68
2023-03-22T03:04:48.453Z,10.70
2023-03-22T03:09:51.903Z,10.67
2023-03-22T03:14:54.961Z,10.70
2023-03-22T03:20:09.697Z,10.69
2023-03-22T03:25:31.199Z,10.63
2023-03-22T03:30:45.630Z,10.71
2023-03-22T03:35:58.880Z,10.90
2023-03-22T03:41:05.462Z,10.84
2023-03-22T03:46:09.159Z,10.80
2023-03-22T03:51:11.785Z,10.96
2023-03-22T03:56:14.588Z,10.97
2023-03-22T04:01:21.910Z,10.98
2023-03-22T04:06:34.988Z,10.96
2023-03-22T04:11:44.573Z,11.06
2023-03-22T04:16:48.819Z,11.20
2023-03-22T04:21:55.072Z,11.56
2023-03-22T04:27:01.472Z,11.81
2023-03-22T04:32:10.860Z,11.96
2023-03-22T04:37:18.623Z,12.06
2023-03-22T04:42:41.410Z,12.03
2023-03-22T04:47:57.580Z,12.14
2023-03-22T04:53:00.414Z,12.10
2023-03-22T04:58:03.306Z,11.98
2023-03-22T05:03:06.161Z,11.83
2023-03-22T05:08:14.599Z,12.03
2023-03-22T05:13:22.213Z,11.97
2023-03-22T05:18:26.534Z,11.94
2023-03-22T05:23:32.088Z,11.94
2023-03-22T05:28:36.093Z,11.85
2023-03-22T05:33:55.568Z,11.94
2023-03-22T05:39:03.403Z,12.23
2023-03-22T05:44:06.672Z,12.27
2023-03-22T05:49:12.299Z,12.50
2023-03-22T05:54:16.230Z,12.75
2023-03-22T05:59:24.645Z,13.02
2023-03-22T06:04:27.423Z,13.36
2023-03-22T06:09:37.112Z,13.62
2023-03-22T06:14:43.663Z,13.95
2023-03-22T06:19:56.041Z,13.99
2023-03-22T06:24:59.741Z,14.28
2023-03-22T06:30:14.114Z,14.43
2023-03-22T06:35:39.613Z,14.51
2023-03-22T06:40:45.309Z,14.76
2023-03-22T06:45:49.361Z,14.72
2023-03-22T06:50:57.700Z,14.50
2023-03-22T06:56:05.463Z,14.35
2023-03-22T07:01:21.726Z,14.42
2023-03-22T07:06:24.674Z,14.41
2023-03-22T07:11:30.674Z,14.23
2023-03-22T07:16:35.879Z,14.39
2023-03-22T07:21:40.920Z,14.54
2023-03-22T07:26:46.876Z,14.85
2023-03-22T07:31:54.623Z,14.94
2023-03-22T07:37:05.255Z,15.06
2023-03-22T07:42:08.167Z,15.15
2023-03-22T07:47:40.759Z,15.07
2023-03-22T07:53:04.578Z,15.18
2023-03-22T07:58:07.158Z,15.18
2023-03-22T08:03:12.651Z,15.43
2023-03-22T08:08:32.939Z,15.76
2023-03-22T08:13:36.052Z,15.89
2023-03-22T08:18:39.227Z,15.90
2023-03-22T08:23:43.162Z,15.85
2023-03-22T08:29:04.251Z,16.21
2023-03-22T08:34:10.419Z,16.38
2023-03-22T08:39:13.830Z,16.47
2023-03-22T08:44:26.832Z,16.62
2023-03-22T08:49:30.189Z,16.69
2023-03-22T08:54:38.842Z,16.97
2023-03-22T08:59:41.403Z,17.26
2023-03-22T09:05:10.816Z,17.47
2023-03-22T09:10:14.393Z,17.84
2023-03-22T09:15:19.270Z,18.03
2023-03-22T09:20:35.015Z,18.13
2023-03-22T09:25:46.719Z,18.12
2023-03-22T09:30:51.660Z,18.10
2023-03-22T09:35:55.781Z,18.12
2023-03-22T09:41:14.534Z,18.15
2023-03-22T09:46:37.161Z,18.43
2023-03-22T09:51:45.607Z,18.44
2023-03-22T09:56:58.507Z,18.61
2023-03-22T10:02:05.609Z,18.63
2023-03-22T10:07:18.947Z,18.74
2023-03-22T10:12:28.783Z,18.70
2023-03-22T10:18:08.625Z,18.81
2023-03-22T10:23:21.313Z,19.01
2023-03-22T10:29:06.355Z,19.08
2023-03-22T10:34:31.511Z,18.99
2023-03-22T10:39:45.535Z,18.88
2023-03-22T10:44:52.290Z,18.96
2023-03-22T10:49:58.255Z,19.18
2023-03-22T10:55:04.355Z,19.19
2023-03-22T11:00:12.956Z,19.35
2023-03-22T11:05:23.316Z,19.57
2023-03-22T11:10:29.579Z,19.13
2023-03-22T11:15:34.077Z,19.32
2023-03-22T11:20:40.304Z,20.30
2023-03-22T11:25:49.663Z,20.90
2023-03-22T11:31:07.009Z,21.83
2023-03-22T11:36:19.206Z,22.28
2023-03-22T11:41:26.136Z,22.08
2023-03-22T11:46:30.159Z,21.52
2023-03-22T11:51:38.655Z,22.45
2023-03-22T11:56:47.589Z,23.00
2023-03-22T12:01:53.077Z,22.19
2023-03-22T12:07:05.964Z,20.80
2023-03-22T12:12:19.547Z,20.27
2023-03-22T12:17:41.131Z,21.65
2023-03-22T12:22:51.384Z,22.23
2023-03-22T12:27:57.533Z,22.50
2023-03-22T12:33:06.111Z,23.06
2023-03-22T12:38:35.770Z,22.94
2023-03-22T12:44:11.507Z,22.85
2023-03-22T12:49:21.950Z,22.84
2023-03-22T12:54:26.488Z,23.45
2023-03-22T12:59:31.590Z,23.19
2023-03-22T13:04:37.361Z,23.27
2023-03-22T13:09:51.044Z,23.31
2023-03-22T13:15:01.570Z,23.43
2023-03-22T13:20:07.100Z,23.27
2023-03-22T13:25:19.271Z,23.03
2023-03-22T13:30:24.576Z,22.71
2023-03-22T13:35:41.111Z,22.28
2023-03-22T13:41:00.105Z,22.03
2023-03-22T13:46:10.110Z,21.90
2023-03-22T13:51:25.839Z,21.49
2023-03-22T13:56:32.052Z,20.97
2023-03-22T14:01:38.482Z,20.96
2023-03-22T14:06:52.737Z,20.93
2023-03-22T14:12:08.750Z,20.29
2023-03-22T14:17:21.259Z,19.91
